sensor_id;sensor_type;location;lat;lon;timestamp;P1;durP1;ratioP1;P2;durP2;ratioP2
50128;SDS011;36026;45.478;9.224;2022-11-20T00:01:50;29.85;;;18.05;;
50128;SDS011;36026;45.478;9.224;2022-11-20T00:04:52;28.92;;;17.98;;
50128;SDS011;36026;45.478;9.224;2022-11-20T00:07:55;31.73;;;18.10;;
50128;SDS011;36026;45.478;9.224;2022-11-20T00:10:56;34.03;;;18.08;;
50128;SDS011;36026;45.478;9.224;2022-11-20T00:13:59;32.08;;;18.55;;
50128;SDS011;36026;45.478;9.224;2022-11-20T00:17:01;30.02;;;18.58;;
50128;SDS011;36026;45.478;9.224;2022-11-20T00:20:03;30.40;;;18.67;;
50128;SDS011;36026;45.478;9.224;2022-11-20T00:23:07;28.45;;;17.67;;
50128;SDS011;36026;45.478;9.224;2022-11-20T00:26:09;31.00;;;18.92;;
50128;SDS011;36026;45.478;9.224;2022-11-20T00:29:12;30.75;;;17.65;;
50128;SDS011;36026;45.478;9.224;2022-11-20T00:32:14;33.72;;;18.90;;
50128;SDS011;36026;45.478;9.224;2022-11-20T00:35:15;30.25;;;18.08;;
50128;SDS011;36026;45.478;9.224;2022-11-20T00:38:18;33.30;;;18.98;;
50128;SDS011;36026;45.478;9.224;2022-11-20T00:41:20;33.55;;;18.30;;
50128;SDS011;36026;45.478;9.224;2022-11-20T00:44:22;30.40;;;17.95;;
50128;SDS011;36026;45.478;9.224;2022-11-20T00:47:24;34.97;;;19.52;;
50128;SDS011;36026;45.478;9.224;2022-11-20T00:50:25;27.60;;;18.08;;
50128;SDS011;36026;45.478;9.224;2022-11-20T00:53:28;28.83;;;17.35;;
50128;SDS011;36026;45.478;9.224;2022-11-20T00:59:33;31.52;;;17.95;;
50128;SDS011;36026;45.478;9.224;2022-11-20T01:02:34;30.17;;;18.50;;
50128;SDS011;36026;45.478;9.224;2022-11-20T01:05:36;32.03;;;18.58;;
50128;SDS011;36026;45.478;9.224;2022-11-20T01:08:39;31.83;;;19.00;;
50128;SDS011;36026;45.478;9.224;2022-11-20T01:11:41;29.73;;;18.90;;
50128;SDS011;36026;45.478;9.224;2022-11-20T01:14:44;34.10;;;19.65;;
50128;SDS011;36026;45.478;9.224;2022-11-20T01:17:45;31.52;;;19.52;;
50128;SDS011;36026;45.478;9.224;2022-11-20T01:20:47;28.25;;;18.13;;
50128;SDS011;36026;45.478;9.224;2022-11-20T01:23:50;32.80;;;19.13;;
50128;SDS011;36026;45.478;9.224;2022-11-20T01:26:52;29.65;;;18.38;;
50128;SDS011;36026;45.478;9.224;2022-11-20T01:29:54;32.95;;;18.92;;
50128;SDS011;36026;45.478;9.224;2022-11-20T01:32:55;29.17;;;18.67;;
50128;SDS011;36026;45.478;9.224;2022-11-20T01:36:02;30.48;;;17.55;;
50128;SDS011;36026;45.478;9.224;2022-11-20T01:39:09;27.27;;;17.52;;
50128;SDS011;36026;45.478;9.224;2022-11-20T01:42:12;25.73;;;16.98;;
50128;SDS011;36026;45.478;9.224;2022-11-20T01:49:02;27.27;;;16.58;;
50128;SDS011;36026;45.478;9.224;2022-11-20T01:52:05;26.75;;;16.73;;
50128;SDS011;36026;45.478;9.224;2022-11-20T01:55:11;24.13;;;15.82;;
50128;SDS011;36026;45.478;9.224;2022-11-20T01:58:14;26.38;;;16.55;;
50128;SDS011;36026;45.478;9.224;2022-11-20T02:01:16;23.40;;;15.75;;
50128;SDS011;36026;45.478;9.224;2022-11-20T02:04:18;24.13;;;15.50;;
50128;SDS011;36026;45.478;9.224;2022-11-20T02:07:20;23.70;;;15.68;;
50128;SDS011;36026;45.478;9.224;2022-11-20T02:10:25;25.20;;;16.05;;
50128;SDS011;36026;45.478;9.224;2022-11-20T02:13:27;24.85;;;15.38;;
50128;SDS011;36026;45.478;9.224;2022-11-20T02:16:46;27.00;;;16.35;;
50128;SDS011;36026;45.478;9.224;2022-11-20T02:19:49;23.08;;;14.60;;
50128;SDS011;36026;45.478;9.224;2022-11-20T02:22:53;28.83;;;16.85;;
50128;SDS011;36026;45.478;9.224;2022-11-20T02:25:57;24.02;;;16.20;;
50128;SDS011;36026;45.478;9.224;2022-11-20T02:29:00;22.23;;;15.30;;
50128;SDS011;36026;45.478;9.224;2022-11-20T02:32:02;21.13;;;14.40;;
50128;SDS011;36026;45.478;9.224;2022-11-20T02:35:06;21.23;;;14.52;;
50128;SDS011;36026;45.478;9.224;2022-11-20T02:38:09;22.85;;;15.23;;
50128;SDS011;36026;45.478;9.224;2022-11-20T02:41:12;19.80;;;14.48;;
50128;SDS011;36026;45.478;9.224;2022-11-20T02:44:14;22.98;;;14.77;;
50128;SDS011;36026;45.478;9.224;2022-11-20T02:47:16;25.85;;;15.20;;
50128;SDS011;36026;45.478;9.224;2022-11-20T02:50:17;23.77;;;15.15;;
50128;SDS011;36026;45.478;9.224;2022-11-20T02:53:19;23.33;;;15.27;;
50128;SDS011;36026;45.478;9.224;2022-11-20T02:56:22;23.20;;;14.60;;
50128;SDS011;36026;45.478;9.224;2022-11-20T02:59:24;24.87;;;13.87;;
50128;SDS011;36026;45.478;9.224;2022-11-20T03:02:27;24.20;;;15.45;;
50128;SDS011;36026;45.478;9.224;2022-11-20T03:05:30;17.48;;;12.88;;
50128;SDS011;36026;45.478;9.224;2022-11-20T03:08:32;20.52;;;13.18;;
50128;SDS011;36026;45.478;9.224;2022-11-20T03:11:35;21.63;;;13.00;;
50128;SDS011;36026;45.478;9.224;2022-11-20T03:14:37;19.50;;;12.48;;
50128;SDS011;36026;45.478;9.224;2022-11-20T03:17:38;19.52;;;12.57;;
50128;SDS011;36026;45.478;9.224;2022-11-20T03:20:40;19.25;;;12.60;;
50128;SDS011;36026;45.478;9.224;2022-11-20T03:23:42;17.83;;;12.05;;
50128;SDS011;36026;45.478;9.224;2022-11-20T03:26:45;18.13;;;11.88;;
50128;SDS011;36026;45.478;9.224;2022-11-20T03:29:46;16.63;;;11.35;;
50128;SDS011;36026;45.478;9.224;2022-11-20T03:32:48;18.30;;;12.20;;
50128;SDS011;36026;45.478;9.224;2022-11-20T03:35:50;19.67;;;11.57;;
50128;SDS011;36026;45.478;9.224;2022-11-20T03:38:52;19.77;;;11.60;;
50128;SDS011;36026;45.478;9.224;2022-11-20T03:41:55;18.23;;;11.48;;
50128;SDS011;36026;45.478;9.224;2022-11-20T03:44:57;16.50;;;11.13;;
50128;SDS011;36026;45.478;9.224;2022-11-20T03:47:59;18.20;;;11.52;;
50128;SDS011;36026;45.478;9.224;2022-11-20T03:51:08;16.95;;;11.00;;
50128;SDS011;36026;45.478;9.224;2022-11-20T03:54:10;18.02;;;11.05;;
50128;SDS011;36026;45.478;9.224;2022-11-20T03:57:13;19.48;;;11.55;;
50128;SDS011;36026;45.478;9.224;2022-11-20T04:00:15;16.98;;;11.05;;
50128;SDS011;36026;45.478;9.224;2022-11-20T04:03:17;17.38;;;11.25;;
50128;SDS011;36026;45.478;9.224;2022-11-20T04:06:19;18.40;;;12.18;;
50128;SDS011;36026;45.478;9.224;2022-11-20T04:09:22;17.38;;;10.73;;
50128;SDS011;36026;45.478;9.224;2022-11-20T04:12:24;15.68;;;10.63;;
50128;SDS011;36026;45.478;9.224;2022-11-20T04:15:26;14.70;;;10.07;;
50128;SDS011;36026;45.478;9.224;2022-11-20T04:18:28;15.60;;;10.80;;
50128;SDS011;36026;45.478;9.224;2022-11-20T04:21:29;15.00;;;10.40;;
50128;SDS011;36026;45.478;9.224;2022-11-20T04:24:31;15.45;;;9.95;;
50128;SDS011;36026;45.478;9.224;2022-11-20T04:27:34;16.70;;;10.98;;
50128;SDS011;36026;45.478;9.224;2022-11-20T04:30:36;18.15;;;10.13;;
50128;SDS011;36026;45.478;9.224;2022-11-20T04:33:38;16.40;;;10.32;;
50128;SDS011;36026;45.478;9.224;2022-11-20T04:36:40;16.75;;;10.32;;
50128;SDS011;36026;45.478;9.224;2022-11-20T04:39:42;15.18;;;10.32;;
50128;SDS011;36026;45.478;9.224;2022-11-20T04:42:45;14.95;;;10.55;;
50128;SDS011;36026;45.478;9.224;2022-11-20T04:45:50;13.38;;;9.52;;
50128;SDS011;36026;45.478;9.224;2022-11-20T04:48:51;15.88;;;9.93;;
50128;SDS011;36026;45.478;9.224;2022-11-20T04:51:53;13.63;;;9.23;;
50128;SDS011;36026;45.478;9.224;2022-11-20T04:54:55;16.63;;;9.80;;
50128;SDS011;36026;45.478;9.224;2022-11-20T04:57:58;14.82;;;8.98;;
50128;SDS011;36026;45.478;9.224;2022-11-20T05:01:00;15.45;;;9.00;;
50128;SDS011;36026;45.478;9.224;2022-11-20T05:04:03;14.63;;;9.63;;
50128;SDS011;36026;45.478;9.224;2022-11-20T05:07:05;15.10;;;8.88;;
50128;SDS011;36026;45.478;9.224;2022-11-20T05:10:07;13.55;;;8.73;;
50128;SDS011;36026;45.478;9.224;2022-11-20T05:13:11;13.38;;;9.23;;
50128;SDS011;36026;45.478;9.224;2022-11-20T05:16:13;10.93;;;8.13;;
50128;SDS011;36026;45.478;9.224;2022-11-20T05:19:16;14.55;;;8.60;;
50128;SDS011;36026;45.478;9.224;2022-11-20T05:22:19;14.50;;;8.27;;
50128;SDS011;36026;45.478;9.224;2022-11-20T05:25:20;12.13;;;7.97;;
50128;SDS011;36026;45.478;9.224;2022-11-20T05:28:23;12.73;;;8.23;;
50128;SDS011;36026;45.478;9.224;2022-11-20T05:31:26;12.07;;;7.70;;
50128;SDS011;36026;45.478;9.224;2022-11-20T05:34:27;15.45;;;9.20;;
50128;SDS011;36026;45.478;9.224;2022-11-20T05:37:29;12.63;;;7.75;;
50128;SDS011;36026;45.478;9.224;2022-11-20T05:40:30;12.82;;;8.02;;
50128;SDS011;36026;45.478;9.224;2022-11-20T05:43:34;12.35;;;7.90;;
50128;SDS011;36026;45.478;9.224;2022-11-20T05:46:36;14.43;;;8.13;;
50128;SDS011;36026;45.478;9.224;2022-11-20T05:49:37;16.55;;;9.25;;
50128;SDS011;36026;45.478;9.224;2022-11-20T05:52:39;10.65;;;7.95;;
50128;SDS011;36026;45.478;9.224;2022-11-20T05:55:41;13.88;;;8.98;;
50128;SDS011;36026;45.478;9.224;2022-11-20T05:58:44;12.45;;;7.90;;
50128;SDS011;36026;45.478;9.224;2022-11-20T06:01:46;13.70;;;8.03;;
50128;SDS011;36026;45.478;9.224;2022-11-20T06:04:47;13.73;;;8.15;;
50128;SDS011;36026;45.478;9.224;2022-11-20T06:07:49;13.15;;;8.25;;
50128;SDS011;36026;45.478;9.224;2022-11-20T06:10:50;13.43;;;8.48;;
50128;SDS011;36026;45.478;9.224;2022-11-20T06:13:53;11.05;;;8.00;;
50128;SDS011;36026;45.478;9.224;2022-11-20T06:16:55;12.05;;;8.25;;
50128;SDS011;36026;45.478;9.224;2022-11-20T06:19:57;12.68;;;8.70;;
50128;SDS011;36026;45.478;9.224;2022-11-20T06:22:58;12.98;;;8.52;;
50128;SDS011;36026;45.478;9.224;2022-11-20T06:26:01;12.32;;;8.52;;
50128;SDS011;36026;45.478;9.224;2022-11-20T06:29:05;10.80;;;7.93;;
50128;SDS011;36026;45.478;9.224;2022-11-20T06:32:06;10.95;;;7.75;;
50128;SDS011;36026;45.478;9.224;2022-11-20T06:35:08;14.18;;;7.57;;
50128;SDS011;36026;45.478;9.224;2022-11-20T06:38:10;10.18;;;7.15;;
50128;SDS011;36026;45.478;9.224;2022-11-20T06:41:13;13.52;;;8.32;;
50128;SDS011;36026;45.478;9.224;2022-11-20T06:44:17;13.02;;;7.90;;
50128;SDS011;36026;45.478;9.224;2022-11-20T06:47:19;11.73;;;7.35;;
50128;SDS011;36026;45.478;9.224;2022-11-20T06:50:20;11.77;;;7.65;;
50128;SDS011;36026;45.478;9.224;2022-11-20T06:53:22;10.45;;;7.43;;
50128;SDS011;36026;45.478;9.224;2022-11-20T06:56:24;11.43;;;7.97;;
50128;SDS011;36026;45.478;9.224;2022-11-20T06:59:27;9.88;;;6.88;;
50128;SDS011;36026;45.478;9.224;2022-11-20T07:02:29;10.25;;;7.68;;
50128;SDS011;36026;45.478;9.224;2022-11-20T07:05:30;10.88;;;7.18;;
50128;SDS011;36026;45.478;9.224;2022-11-20T07:08:32;11.07;;;6.80;;
50128;SDS011;36026;45.478;9.224;2022-11-20T07:11:34;12.63;;;7.60;;
50128;SDS011;36026;45.478;9.224;2022-11-20T07:14:37;11.93;;;6.50;;
50128;SDS011;36026;45.478;9.224;2022-11-20T07:17:39;8.48;;;5.78;;
50128;SDS011;36026;45.478;9.224;2022-11-20T07:20:40;9.23;;;5.93;;
50128;SDS011;36026;45.478;9.224;2022-11-20T07:23:42;8.90;;;5.53;;
50128;SDS011;36026;45.478;9.224;2022-11-20T07:26:45;9.75;;;5.68;;
50128;SDS011;36026;45.478;9.224;2022-11-20T07:29:48;8.05;;;5.28;;
50128;SDS011;36026;45.478;9.224;2022-11-20T07:32:50;7.72;;;5.25;;
50128;SDS011;36026;45.478;9.224;2022-11-20T07:35:52;6.30;;;5.22;;
50128;SDS011;36026;45.478;9.224;2022-11-20T07:38:53;6.00;;;4.75;;
50128;SDS011;36026;45.478;9.224;2022-11-20T07:41:55;7.30;;;4.75;;
50128;SDS011;36026;45.478;9.224;2022-11-20T07:44:58;7.75;;;5.10;;
50128;SDS011;36026;45.478;9.224;2022-11-20T07:48:00;7.30;;;5.47;;
50128;SDS011;36026;45.478;9.224;2022-11-20T07:51:02;7.25;;;5.28;;
50128;SDS011;36026;45.478;9.224;2022-11-20T07:54:03;7.63;;;5.47;;
50128;SDS011;36026;45.478;9.224;2022-11-20T07:57:05;8.48;;;5.30;;
50128;SDS011;36026;45.478;9.224;2022-11-20T08:00:09;7.72;;;5.47;;
50128;SDS011;36026;45.478;9.224;2022-11-20T08:03:12;9.05;;;5.43;;
50128;SDS011;36026;45.478;9.224;2022-11-20T08:06:13;7.85;;;5.45;;
50128;SDS011;36026;45.478;9.224;2022-11-20T08:09:15;9.43;;;5.68;;
50128;SDS011;36026;45.478;9.224;2022-11-20T08:12:17;9.70;;;5.60;;
50128;SDS011;36026;45.478;9.224;2022-11-20T08:15:39;5.93;;;4.78;;
50128;SDS011;36026;45.478;9.224;2022-11-20T08:18:41;6.43;;;4.95;;
50128;SDS011;36026;45.478;9.224;2022-11-20T08:21:43;7.15;;;5.28;;
50128;SDS011;36026;45.478;9.224;2022-11-20T08:24:45;7.75;;;5.47;;
50128;SDS011;36026;45.478;9.224;2022-11-20T08:27:46;7.28;;;5.28;;
50128;SDS011;36026;45.478;9.224;2022-11-20T08:30:49;7.13;;;5.20;;
50128;SDS011;36026;45.478;9.224;2022-11-20T08:33:51;8.67;;;6.03;;
50128;SDS011;36026;45.478;9.224;2022-11-20T08:36:53;8.20;;;6.20;;
50128;SDS011;36026;45.478;9.224;2022-11-20T08:39:55;9.13;;;6.13;;
50128;SDS011;36026;45.478;9.224;2022-11-20T08:42:57;7.97;;;5.40;;
50128;SDS011;36026;45.478;9.224;2022-11-20T08:46:00;7.50;;;5.18;;
50128;SDS011;36026;45.478;9.224;2022-11-20T08:49:01;7.63;;;5.03;;
50128;SDS011;36026;45.478;9.224;2022-11-20T08:52:03;12.02;;;5.10;;
50128;SDS011;36026;45.478;9.224;2022-11-20T08:55:06;8.35;;;5.03;;
50128;SDS011;36026;45.478;9.224;2022-11-20T08:58:08;7.13;;;5.28;;
50128;SDS011;36026;45.478;9.224;2022-11-20T09:01:11;5.82;;;4.72;;
50128;SDS011;36026;45.478;9.224;2022-11-20T09:04:13;5.60;;;4.47;;
50128;SDS011;36026;45.478;9.224;2022-11-20T09:07:15;6.32;;;4.82;;
50128;SDS011;36026;45.478;9.224;2022-11-20T09:10:17;7.40;;;4.72;;
50128;SDS011;36026;45.478;9.224;2022-11-20T09:13:19;6.70;;;4.50;;
50128;SDS011;36026;45.478;9.224;2022-11-20T09:16:22;5.63;;;3.97;;
50128;SDS011;36026;45.478;9.224;2022-11-20T09:19:23;5.10;;;4.30;;
50128;SDS011;36026;45.478;9.224;2022-11-20T09:22:25;6.72;;;3.90;;
50128;SDS011;36026;45.478;9.224;2022-11-20T09:25:27;4.53;;;3.35;;
50128;SDS011;36026;45.478;9.224;2022-11-20T09:28:29;4.88;;;3.45;;
50128;SDS011;36026;45.478;9.224;2022-11-20T09:31:33;4.07;;;3.53;;
50128;SDS011;36026;45.478;9.224;2022-11-20T09:34:34;4.07;;;3.25;;
50128;SDS011;36026;45.478;9.224;2022-11-20T09:37:36;4.40;;;3.38;;
50128;SDS011;36026;45.478;9.224;2022-11-20T09:40:38;4.25;;;3.53;;
50128;SDS011;36026;45.478;9.224;2022-11-20T09:43:45;4.45;;;3.75;;
50128;SDS011;36026;45.478;9.224;2022-11-20T09:46:53;4.95;;;4.15;;
50128;SDS011;36026;45.478;9.224;2022-11-20T09:50:00;5.82;;;4.22;;
50128;SDS011;36026;45.478;9.224;2022-11-20T09:53:11;5.05;;;4.28;;
50128;SDS011;36026;45.478;9.224;2022-11-20T09:56:14;4.75;;;4.32;;
50128;SDS011;36026;45.478;9.224;2022-11-20T10:02:27;4.55;;;4.10;;
50128;SDS011;36026;45.478;9.224;2022-11-20T10:05:31;4.82;;;4.30;;
50128;SDS011;36026;45.478;9.224;2022-11-20T10:08:41;4.57;;;3.97;;
50128;SDS011;36026;45.478;9.224;2022-11-20T10:11:46;4.93;;;3.83;;
50128;SDS011;36026;45.478;9.224;2022-11-20T10:14:58;4.68;;;3.70;;
50128;SDS011;36026;45.478;9.224;2022-11-20T10:18:21;3.78;;;3.38;;
50128;SDS011;36026;45.478;9.224;2022-11-20T10:21:30;5.38;;;3.80;;
50128;SDS011;36026;45.478;9.224;2022-11-20T10:24:42;5.75;;;4.15;;
50128;SDS011;36026;45.478;9.224;2022-11-20T10:27:50;5.05;;;4.55;;
50128;SDS011;36026;45.478;9.224;2022-11-20T10:31:00;5.35;;;4.20;;
50128;SDS011;36026;45.478;9.224;2022-11-20T10:34:07;6.10;;;4.10;;
50128;SDS011;36026;45.478;9.224;2022-11-20T10:37:16;5.35;;;4.38;;
50128;SDS011;36026;45.478;9.224;2022-11-20T10:40:21;5.80;;;5.13;;
50128;SDS011;36026;45.478;9.224;2022-11-20T10:43:26;6.10;;;4.60;;
50128;SDS011;36026;45.478;9.224;2022-11-20T10:46:35;5.65;;;4.15;;
50128;SDS011;36026;45.478;9.224;2022-11-20T10:49:41;6.20;;;4.90;;
50128;SDS011;36026;45.478;9.224;2022-11-20T10:52:45;7.65;;;5.85;;
50128;SDS011;36026;45.478;9.224;2022-11-20T10:55:53;6.93;;;5.18;;
50128;SDS011;36026;45.478;9.224;2022-11-20T10:59:03;5.00;;;4.50;;
50128;SDS011;36026;45.478;9.224;2022-11-20T11:02:16;5.43;;;4.68;;
50128;SDS011;36026;45.478;9.224;2022-11-20T11:05:26;4.90;;;4.18;;
50128;SDS011;36026;45.478;9.224;2022-11-20T11:08:34;4.28;;;3.88;;
50128;SDS011;36026;45.478;9.224;2022-11-20T11:11:38;6.45;;;3.80;;
50128;SDS011;36026;45.478;9.224;2022-11-20T11:14:44;5.53;;;3.83;;
50128;SDS011;36026;45.478;9.224;2022-11-20T11:17:47;5.40;;;4.63;;
50128;SDS011;36026;45.478;9.224;2022-11-20T11:20:51;5.63;;;4.45;;
50128;SDS011;36026;45.478;9.224;2022-11-20T11:23:57;6.20;;;4.70;;
50128;SDS011;36026;45.478;9.224;2022-11-20T11:27:01;5.93;;;4.55;;
50128;SDS011;36026;45.478;9.224;2022-11-20T11:30:16;5.45;;;4.30;;
50128;SDS011;36026;45.478;9.224;2022-11-20T11:33:19;5.28;;;4.50;;
50128;SDS011;36026;45.478;9.224;2022-11-20T11:36:23;5.80;;;4.55;;
50128;SDS011;36026;45.478;9.224;2022-11-20T11:39:26;5.28;;;4.78;;
50128;SDS011;36026;45.478;9.224;2022-11-20T11:42:28;6.07;;;4.30;;
50128;SDS011;36026;45.478;9.224;2022-11-20T11:45:30;5.03;;;4.37;;
50128;SDS011;36026;45.478;9.224;2022-11-20T11:48:32;6.40;;;4.90;;
50128;SDS011;36026;45.478;9.224;2022-11-20T11:51:37;5.22;;;4.50;;
50128;SDS011;36026;45.478;9.224;2022-11-20T11:54:43;5.57;;;4.75;;
50128;SDS011;36026;45.478;9.224;2022-11-20T11:57:49;5.78;;;5.15;;
50128;SDS011;36026;45.478;9.224;2022-11-20T12:00:56;6.10;;;5.30;;
50128;SDS011;36026;45.478;9.224;2022-11-20T12:04:03;7.22;;;5.15;;
50128;SDS011;36026;45.478;9.224;2022-11-20T12:07:10;5.20;;;4.70;;
50128;SDS011;36026;45.478;9.224;2022-11-20T12:10:15;6.22;;;4.80;;
50128;SDS011;36026;45.478;9.224;2022-11-20T12:13:21;5.88;;;4.75;;
50128;SDS011;36026;45.478;9.224;2022-11-20T12:16:30;5.47;;;4.93;;
50128;SDS011;36026;45.478;9.224;2022-11-20T12:19:36;6.25;;;4.97;;
50128;SDS011;36026;45.478;9.224;2022-11-20T12:22:41;5.80;;;5.13;;
50128;SDS011;36026;45.478;9.224;2022-11-20T12:25:49;5.82;;;4.90;;
50128;SDS011;36026;45.478;9.224;2022-11-20T12:28:53;8.13;;;5.25;;
50128;SDS011;36026;45.478;9.224;2022-11-20T12:32:06;5.88;;;4.95;;
50128;SDS011;36026;45.478;9.224;2022-11-20T12:35:30;5.88;;;4.95;;
50128;SDS011;36026;45.478;9.224;2022-11-20T12:42:10;6.43;;;5.72;;
50128;SDS011;36026;45.478;9.224;2022-11-20T12:49:13;7.82;;;6.03;;
50128;SDS011;36026;45.478;9.224;2022-11-20T12:52:29;8.07;;;5.70;;
50128;SDS011;36026;45.478;9.224;2022-11-20T12:55:44;6.95;;;5.68;;
50128;SDS011;36026;45.478;9.224;2022-11-20T12:58:50;6.78;;;5.40;;
50128;SDS011;36026;45.478;9.224;2022-11-20T13:02:01;8.32;;;5.65;;
50128;SDS011;36026;45.478;9.224;2022-11-20T13:05:19;7.50;;;5.32;;
50128;SDS011;36026;45.478;9.224;2022-11-20T13:08:24;6.20;;;5.38;;
50128;SDS011;36026;45.478;9.224;2022-11-20T13:14:33;8.05;;;5.93;;
50128;SDS011;36026;45.478;9.224;2022-11-20T13:17:38;7.15;;;5.20;;
50128;SDS011;36026;45.478;9.224;2022-11-20T13:20:43;5.65;;;4.53;;
50128;SDS011;36026;45.478;9.224;2022-11-20T13:23:46;7.00;;;4.85;;
50128;SDS011;36026;45.478;9.224;2022-11-20T13:26:58;6.20;;;4.60;;
50128;SDS011;36026;45.478;9.224;2022-11-20T13:30:03;5.90;;;4.47;;
50128;SDS011;36026;45.478;9.224;2022-11-20T13:33:22;6.03;;;4.80;;
50128;SDS011;36026;45.478;9.224;2022-11-20T13:36:25;6.00;;;4.22;;
50128;SDS011;36026;45.478;9.224;2022-11-20T13:39:28;6.63;;;4.90;;
50128;SDS011;36026;45.478;9.224;2022-11-20T13:42:33;6.80;;;5.15;;
50128;SDS011;36026;45.478;9.224;2022-11-20T13:45:37;7.20;;;5.00;;
50128;SDS011;36026;45.478;9.224;2022-11-20T13:48:39;7.47;;;5.15;;
50128;SDS011;36026;45.478;9.224;2022-11-20T13:51:42;6.78;;;4.80;;
50128;SDS011;36026;45.478;9.224;2022-11-20T13:54:52;5.43;;;4.35;;
50128;SDS011;36026;45.478;9.224;2022-11-20T13:58:02;6.47;;;4.55;;
50128;SDS011;36026;45.478;9.224;2022-11-20T14:01:10;6.20;;;4.15;;
50128;SDS011;36026;45.478;9.224;2022-11-20T14:04:15;3.95;;;3.38;;
50128;SDS011;36026;45.478;9.224;2022-11-20T14:07:21;4.40;;;4.00;;
50128;SDS011;36026;45.478;9.224;2022-11-20T14:10:27;5.07;;;3.78;;
50128;SDS011;36026;45.478;9.224;2022-11-20T14:13:31;7.25;;;4.60;;
50128;SDS011;36026;45.478;9.224;2022-11-20T14:16:34;5.95;;;4.40;;
50128;SDS011;36026;45.478;9.224;2022-11-20T14:19:36;6.32;;;4.32;;
50128;SDS011;36026;45.478;9.224;2022-11-20T14:25:48;6.30;;;4.25;;
50128;SDS011;36026;45.478;9.224;2022-11-20T14:28:51;7.60;;;4.13;;
50128;SDS011;36026;45.478;9.224;2022-11-20T14:31:53;6.13;;;4.20;;
50128;SDS011;36026;45.478;9.224;2022-11-20T14:34:55;4.85;;;3.35;;
50128;SDS011;36026;45.478;9.224;2022-11-20T14:38:00;3.45;;;2.70;;
50128;SDS011;36026;45.478;9.224;2022-11-20T14:41:06;3.90;;;2.78;;
50128;SDS011;36026;45.478;9.224;2022-11-20T14:44:09;2.47;;;1.75;;
50128;SDS011;36026;45.478;9.224;2022-11-20T14:47:11;2.80;;;1.92;;
50128;SDS011;36026;45.478;9.224;2022-11-20T14:50:16;3.15;;;1.70;;
50128;SDS011;36026;45.478;9.224;2022-11-20T14:53:22;2.42;;;1.88;;
50128;SDS011;36026;45.478;9.224;2022-11-20T14:56:24;3.50;;;2.40;;
50128;SDS011;36026;45.478;9.224;2022-11-20T14:59:27;3.17;;;1.88;;
50128;SDS011;36026;45.478;9.224;2022-11-20T15:02:30;3.00;;;1.80;;
50128;SDS011;36026;45.478;9.224;2022-11-20T15:05:44;2.70;;;1.70;;
50128;SDS011;36026;45.478;9.224;2022-11-20T15:08:50;2.92;;;2.25;;
50128;SDS011;36026;45.478;9.224;2022-11-20T15:11:53;3.72;;;2.50;;
50128;SDS011;36026;45.478;9.224;2022-11-20T15:14:57;3.58;;;2.17;;
50128;SDS011;36026;45.478;9.224;2022-11-20T15:17:59;3.80;;;2.30;;
50128;SDS011;36026;45.478;9.224;2022-11-20T15:21:02;4.55;;;2.40;;
50128;SDS011;36026;45.478;9.224;2022-11-20T15:24:07;4.55;;;2.63;;
50128;SDS011;36026;45.478;9.224;2022-11-20T15:27:09;6.57;;;2.28;;
50128;SDS011;36026;45.478;9.224;2022-11-20T15:30:15;4.25;;;2.58;;
50128;SDS011;36026;45.478;9.224;2022-11-20T15:33:17;5.00;;;2.85;;
50128;SDS011;36026;45.478;9.224;2022-11-20T15:36:19;4.35;;;2.88;;
50128;SDS011;36026;45.478;9.224;2022-11-20T15:39:21;4.32;;;2.70;;
50128;SDS011;36026;45.478;9.224;2022-11-20T15:42:22;5.38;;;3.13;;
50128;SDS011;36026;45.478;9.224;2022-11-20T15:45:25;5.07;;;2.92;;
50128;SDS011;36026;45.478;9.224;2022-11-20T15:48:30;4.95;;;2.50;;
50128;SDS011;36026;45.478;9.224;2022-11-20T15:51:33;4.35;;;2.53;;
50128;SDS011;36026;45.478;9.224;2022-11-20T15:54:36;3.88;;;2.40;;
50128;SDS011;36026;45.478;9.224;2022-11-20T15:57:38;4.65;;;3.00;;
50128;SDS011;36026;45.478;9.224;2022-11-20T16:00:41;4.57;;;2.83;;
50128;SDS011;36026;45.478;9.224;2022-11-20T16:03:42;4.47;;;2.90;;
50128;SDS011;36026;45.478;9.224;2022-11-20T16:06:44;5.70;;;2.85;;
50128;SDS011;36026;45.478;9.224;2022-11-20T16:09:46;5.65;;;3.53;;
50128;SDS011;36026;45.478;9.224;2022-11-20T16:12:47;4.45;;;2.80;;
50128;SDS011;36026;45.478;9.224;2022-11-20T16:16:21;6.43;;;4.22;;
50128;SDS011;36026;45.478;9.224;2022-11-20T16:19:24;5.05;;;3.35;;
50128;SDS011;36026;45.478;9.224;2022-11-20T16:22:25;5.50;;;3.17;;
50128;SDS011;36026;45.478;9.224;2022-11-20T16:25:27;4.55;;;3.45;;
50128;SDS011;36026;45.478;9.224;2022-11-20T16:28:29;4.43;;;3.30;;
50128;SDS011;36026;45.478;9.224;2022-11-20T16:31:32;4.47;;;3.20;;
50128;SDS011;36026;45.478;9.224;2022-11-20T16:34:34;5.00;;;3.42;;
50128;SDS011;36026;45.478;9.224;2022-11-20T16:37:36;4.55;;;3.20;;
50128;SDS011;36026;45.478;9.224;2022-11-20T16:40:38;6.15;;;3.33;;
50128;SDS011;36026;45.478;9.224;2022-11-20T16:43:46;6.00;;;3.85;;
50128;SDS011;36026;45.478;9.224;2022-11-20T16:46:50;6.13;;;3.88;;
50128;SDS011;36026;45.478;9.224;2022-11-20T16:49:52;6.80;;;4.07;;
50128;SDS011;36026;45.478;9.224;2022-11-20T16:52:54;6.80;;;4.20;;
50128;SDS011;36026;45.478;9.224;2022-11-20T16:55:56;6.50;;;4.00;;
50128;SDS011;36026;45.478;9.224;2022-11-20T16:58:58;6.13;;;4.15;;
50128;SDS011;36026;45.478;9.224;2022-11-20T17:02:02;6.68;;;3.92;;
50128;SDS011;36026;45.478;9.224;2022-11-20T17:05:04;7.50;;;4.20;;
50128;SDS011;36026;45.478;9.224;2022-11-20T17:08:07;6.00;;;4.03;;
50128;SDS011;36026;45.478;9.224;2022-11-20T17:11:09;6.55;;;4.28;;
50128;SDS011;36026;45.478;9.224;2022-11-20T17:14:12;5.45;;;3.95;;
50128;SDS011;36026;45.478;9.224;2022-11-20T17:17:15;5.78;;;3.95;;
50128;SDS011;36026;45.478;9.224;2022-11-20T17:20:17;7.63;;;4.33;;
50128;SDS011;36026;45.478;9.224;2022-11-20T17:23:18;8.05;;;4.68;;
50128;SDS011;36026;45.478;9.224;2022-11-20T17:26:20;7.55;;;4.97;;
50128;SDS011;36026;45.478;9.224;2022-11-20T17:29:24;7.70;;;5.03;;
50128;SDS011;36026;45.478;9.224;2022-11-20T17:32:26;10.27;;;5.95;;
50128;SDS011;36026;45.478;9.224;2022-11-20T17:35:28;6.83;;;5.43;;
50128;SDS011;36026;45.478;9.224;2022-11-20T17:38:30;6.88;;;5.18;;
50128;SDS011;36026;45.478;9.224;2022-11-20T17:41:31;8.25;;;5.50;;
50128;SDS011;36026;45.478;9.224;2022-11-20T17:44:33;8.70;;;6.28;;
50128;SDS011;36026;45.478;9.224;2022-11-20T17:47:36;8.38;;;6.13;;
50128;SDS011;36026;45.478;9.224;2022-11-20T17:50:38;10.43;;;5.83;;
50128;SDS011;36026;45.478;9.224;2022-11-20T17:53:40;8.98;;;5.72;;
50128;SDS011;36026;45.478;9.224;2022-11-20T17:56:43;6.00;;;4.73;;
50128;SDS011;36026;45.478;9.224;2022-11-20T18:00:02;10.02;;;6.40;;
50128;SDS011;36026;45.478;9.224;2022-11-20T18:03:05;10.07;;;7.30;;
50128;SDS011;36026;45.478;9.224;2022-11-20T18:06:07;10.70;;;7.47;;
50128;SDS011;36026;45.478;9.224;2022-11-20T18:09:10;11.45;;;7.30;;
50128;SDS011;36026;45.478;9.224;2022-11-20T18:12:12;11.43;;;7.97;;
50128;SDS011;36026;45.478;9.224;2022-11-20T18:15:14;12.55;;;8.57;;
50128;SDS011;36026;45.478;9.224;2022-11-20T18:18:17;12.18;;;8.48;;
50128;SDS011;36026;45.478;9.224;2022-11-20T18:21:19;11.57;;;7.78;;
50128;SDS011;36026;45.478;9.224;2022-11-20T18:24:20;12.13;;;7.65;;
50128;SDS011;36026;45.478;9.224;2022-11-20T18:27:22;13.82;;;7.80;;
50128;SDS011;36026;45.478;9.224;2022-11-20T18:30:24;10.32;;;7.30;;
50128;SDS011;36026;45.478;9.224;2022-11-20T18:33:27;12.02;;;7.82;;
50128;SDS011;36026;45.478;9.224;2022-11-20T18:36:30;12.45;;;8.32;;
50128;SDS011;36026;45.478;9.224;2022-11-20T18:39:32;11.77;;;7.60;;